Time;durP1;ratioP1;P1;durP2;ratioP2;P2;SDS_P1;SDS_P2;PMS_P1;PMS_P2;Temp;Humidity;BMP_temperature;BMP_pressure;BME280_temperature;BME280_humidity;BME280_pressure;Samples;Min_cycle;Max_cycle;Signal;HPM_P1;HPM_P2
2022/01/20 00:00:43;;;;;;;;;0.25;0.00;;;;;5.64;84.40;102340.59;5030111;28;10561;-72
2022/01/20 00:03:24;;;;;;;;;0.00;0.00;;;;;5.65;84.15;102326.19;5031293;28;10344;-71
2022/01/20 00:28:14;;;;;;;;;1.00;1.00;;;;;5.74;81.60;102338.06;5044854;28;10433;-71
2022/01/20 00:38:29;;;;;;;;;1.00;1.00;;;;;5.67;81.58;102340.34;5011643;28;10264;-71
2022/01/20 00:40:55;;;;;;;;;2.50;1.00;;;;;5.67;81.86;102345.72;5039900;28;10440;-72
2022/01/20 00:43:22;;;;;;;;;0.00;0.00;;;;;5.69;82.02;102348.28;5039524;28;10516;-71
2022/01/20 00:45:54;;;;;;;;;1.50;1.00;;;;;5.66;82.16;102341.34;5036298;28;10348;-72
2022/01/20 00:48:30;;;;;;;;;3.50;0.75;;;;;5.64;82.19;102353.19;5018681;28;10548;-70
2022/01/20 00:51:03;;;;;;;;;0.00;0.00;;;;;5.65;82.78;102362.94;5037934;28;10373;-69
2022/01/20 00:53:29;;;;;;;;;0.00;0.00;;;;;5.70;83.70;102375.06;5018215;28;11911;-70
2022/01/20 00:55:56;;;;;;;;;1.00;1.00;;;;;5.67;83.45;102367.22;5039396;28;10744;-69
2022/01/20 00:58:31;;;;;;;;;1.00;1.00;;;;;5.62;83.95;102365.88;5039064;28;10461;-71
2022/01/20 01:01:00;;;;;;;;;1.00;0.75;;;;;5.60;84.66;102357.09;5038919;28;10497;-71
2022/01/20 01:03:27;;;;;;;;;1.00;1.00;;;;;5.59;84.50;102358.06;5038664;28;10426;-71
2022/01/20 01:06:16;;;;;;;;;1.00;1.00;;;;;5.60;84.97;102374.06;5006181;28;10439;-72
2022/01/20 01:08:43;;;;;;;;;1.00;1.00;;;;;5.60;84.62;102360.63;5056021;28;10439;-72
2022/01/20 01:11:10;;;;;;;;;1.33;1.00;;;;;5.57;84.46;102360.88;5021780;28;10532;-69
2022/01/20 01:13:37;;;;;;;;;1.00;1.00;;;;;5.63;84.41;102362.22;5024642;28;10376;-70
2022/01/20 01:16:09;;;;;;;;;5.25;1.00;;;;;5.68;84.71;102368.94;5026301;28;10436;-70
2022/01/20 01:21:30;;;;;;;;;0.50;0.50;;;;;5.59;86.71;102380.41;5044151;28;10363;-69
2022/01/20 01:23:56;;;;;;;;;2.50;1.50;;;;;5.52;88.54;102387.22;5043034;28;10425;-69
2022/01/20 01:26:27;;;;;;;;;2.00;2.00;;;;;5.42;89.47;102386.22;5043110;28;10646;-69
2022/01/20 01:28:56;;;;;;;;;4.00;2.00;;;;;5.30;89.16;102390.69;5042587;28;10605;-69
2022/01/20 01:33:58;;;;;;;;;2.00;1.00;;;;;5.29;88.99;102383.63;5021807;28;10511;-69
2022/01/20 01:36:28;;;;;;;;;1.50;1.00;;;;;5.21;88.31;102370.78;5044677;28;10430;-69
2022/01/20 01:38:59;;;;;;;;;3.50;2.00;;;;;5.17;87.63;102361.22;5025671;28;10664;-69
2022/01/20 01:41:35;;;;;;;;;1.50;1.50;;;;;5.17;87.75;102371.09;5040781;28;10659;-70
2022/01/20 01:44:06;;;;;;;;;0.00;0.00;;;;;5.12;86.66;102358.03;5041566;28;10667;-69
2022/01/20 01:46:37;;;;;;;;;1.25;0.50;;;;;5.08;83.78;102377.19;5026255;28;10783;-71
2022/01/20 01:49:05;;;;;;;;;1.75;1.75;;;;;5.14;83.43;102376.72;5043880;28;10518;-70
2022/01/20 01:51:31;;;;;;;;;2.50;1.25;;;;;5.15;82.35;102386.47;5041821;28;11275;-70
2022/01/20 01:53:58;;;;;;;;;0.00;0.00;;;;;5.17;81.18;102369.28;5026631;28;10518;-69
2022/01/20 01:56:25;;;;;;;;;0.50;0.50;;;;;5.19;81.74;102390.63;5025724;28;10693;-69
2022/01/20 01:58:54;;;;;;;;;0.75;0.50;;;;;5.17;81.36;102414.06;5027945;28;10637;-69
2022/01/20 02:01:59;;;;;;;;;0.75;0.50;;;;;5.25;83.15;102401.78;5036355;28;10527;-69
2022/01/20 02:04:28;;;;;;;;;3.00;0.25;;;;;5.16;84.34;102406.97;5042689;28;11498;-69
2022/01/20 02:20:47;;;;;;;;;0.75;0.00;;;;;4.97;84.55;102396.78;5055379;28;10535;-69
2022/01/20 02:23:15;;;;;;;;;0.00;0.00;;;;;4.92;85.67;102389.06;5037571;28;11068;-69
2022/01/20 02:25:42;;;;;;;;;1.00;0.00;;;;;5.02;85.77;102391.94;5018390;28;10642;-69
2022/01/20 02:28:10;;;;;;;;;1.00;0.00;;;;;5.01;85.67;102389.38;5024243;28;10656;-69
2022/01/20 02:30:40;;;;;;;;;0.00;0.00;;;;;4.99;85.47;102388.63;5040825;28;10621;-69
2022/01/20 02:33:10;;;;;;;;;1.00;1.00;;;;;5.02;85.89;102385.72;5035611;28;10512;-69
2022/01/20 02:35:40;;;;;;;;;2.00;0.50;;;;;4.94;85.71;102392.47;5021599;28;10596;-70
2022/01/20 02:46:08;;;;;;;;;4.50;1.75;;;;;5.00;85.90;102384.97;5021875;28;10810;-70
2022/01/20 02:48:36;;;;;;;;;0.25;0.00;;;;;5.04;84.55;102398.03;5040138;28;11484;-70
2022/01/20 02:51:03;;;;;;;;;5.00;4.00;;;;;5.05;84.41;102390.84;5041979;28;10598;-70
2022/01/20 02:53:30;;;;;;;;;0.00;0.00;;;;;5.06;84.71;102384.50;5061001;28;10692;-70
2022/01/20 02:55:56;;;;;;;;;1.75;1.00;;;;;5.09;84.67;102386.94;5045685;28;10848;-70
2022/01/20 02:58:23;;;;;;;;;0.25;0.00;;;;;5.09;84.39;102382.44;5044100;28;10680;-70
2022/01/20 03:00:50;;;;;;;;;2.00;0.00;;;;;5.08;84.33;102386.09;5025800;28;10603;-70
2022/01/20 03:03:16;;;;;;;;;1.00;0.00;;;;;5.13;84.95;102397.34;5025573;28;10559;-70
2022/01/20 03:05:43;;;;;;;;;0.00;0.00;;;;;5.17;85.56;102401.50;5026370;28;10594;-70
2022/01/20 03:08:11;;;;;;;;;0.75;0.00;;;;;5.14;87.88;102415.16;5024894;28;12193;-70
2022/01/20 03:10:38;;;;;;;;;1.25;0.00;;;;;4.94;88.65;102415.78;5040410;28;10581;-70
2022/01/20 03:13:06;;;;;;;;;0.25;0.00;;;;;4.85;90.00;102413.78;5024447;28;10517;-70
2022/01/20 03:15:35;;;;;;;;;6.00;1.00;;;;;4.85;90.74;102420.00;5021308;28;10793;-69
2022/01/20 03:18:04;;;;;;;;;0.00;0.00;;;;;4.86;91.53;102418.19;5024639;28;10657;-70
2022/01/20 03:20:34;;;;;;;;;0.50;0.50;;;;;4.84;91.79;102415.63;5042031;28;10574;-70
2022/01/20 03:23:00;;;;;;;;;0.00;0.00;;;;;4.75;91.91;102420.81;5025631;28;10622;-70
2022/01/20 03:25:28;;;;;;;;;1.00;0.25;;;;;4.82;92.32;102414.03;5042525;28;10699;-70
2022/01/20 03:27:56;;;;;;;;;0.50;0.00;;;;;4.81;92.43;102428.41;5025732;28;10728;-69
2022/01/20 03:30:25;;;;;;;;;0.00;0.00;;;;;4.69;91.93;102418.56;5042212;28;10580;-70
2022/01/20 03:32:53;;;;;;;;;0.00;0.00;;;;;4.74;91.99;102430.69;5025904;28;10717;-70
2022/01/20 03:35:20;;;;;;;;;0.00;0.00;;;;;4.73;91.75;102428.13;5041555;28;10581;-70
2022/01/20 03:38:04;;;;;;;;;0.00;0.00;;;;;4.75;91.45;102432.41;5040361;28;10806;-70
2022/01/20 03:40:30;;;;;;;;;0.00;0.00;;;;;4.72;91.14;102431.78;5024349;28;10680;-69
2022/01/20 03:42:58;;;;;;;;;0.00;0.00;;;;;4.70;90.77;102431.00;5025781;28;10702;-70
2022/01/20 03:45:25;;;;;;;;;0.00;0.00;;;;;4.74;90.47;102435.19;5021872;28;10583;-70
2022/01/20 03:47:55;;;;;;;;;0.00;0.00;;;;;4.77;90.90;102432.28;5040617;28;10645;-70
2022/01/20 03:53:07;;;;;;;;;4.00;0.50;;;;;4.77;89.67;102448.38;5043906;28;10530;-70
2022/01/20 03:55:35;;;;;;;;;0.00;0.00;;;;;4.78;88.79;102447.41;5045109;28;10744;-69
2022/01/20 03:58:08;;;;;;;;;0.75;0.75;;;;;4.80;89.05;102448.16;5046806;28;10625;-70
2022/01/20 04:00:39;;;;;;;;;1.00;1.00;;;;;4.79;89.35;102460.72;5039252;28;10794;-70
2022/01/20 04:03:20;;;;;;;;;0.00;0.00;;;;;4.80;89.57;102475.84;5007508;28;10762;-70
2022/01/20 04:05:56;;;;;;;;;1.50;0.25;;;;;4.71;88.61;102472.94;5040995;28;10959;-70
2022/01/20 04:08:42;;;;;;;;;7.75;1.75;;;;;4.63;87.75;102471.69;5023738;28;10747;-70
2022/01/20 04:11:12;;;;;;;;;1.00;1.00;;;;;4.50;87.29;102467.34;5042313;28;10904;-70
2022/01/20 04:13:39;;;;;;;;;1.00;1.00;;;;;4.55;87.34;102467.84;5023188;28;10757;-70
2022/01/20 04:16:35;;;;;;;;;1.25;1.00;;;;;4.48;86.05;102471.94;5038495;28;11508;-69
2022/01/20 04:19:08;;;;;;;;;1.50;0.25;;;;;4.42;85.11;102475.91;5023975;28;10675;-70
2022/01/20 04:21:37;;;;;;;;;1.25;0.00;;;;;4.38;84.21;102485.13;5039518;28;10568;-69
2022/01/20 04:24:06;;;;;;;;;0.50;0.00;;;;;4.39;84.20;102491.34;5042376;28;10661;-69
2022/01/20 04:26:35;;;;;;;;;0.75;0.75;;;;;4.47;84.75;102489.88;5056892;28;10843;-69
2022/01/20 04:29:04;;;;;;;;;0.25;0.00;;;;;4.47;83.55;102499.72;5038673;28;10658;-75
2022/01/20 04:31:34;;;;;;;;;0.00;0.00;;;;;4.48;84.18;102510.34;5023896;28;10650;-71
2022/01/20 04:34:02;;;;;;;;;0.50;0.50;;;;;4.51;83.95;102514.63;5023775;28;11479;-71
2022/01/20 04:36:32;;;;;;;;;1.75;0.50;;;;;4.46;84.54;102516.75;5040877;28;10951;-71
2022/01/20 04:39:02;;;;;;;;;1.25;0.75;;;;;4.39;83.82;102526.22;5018074;28;10811;-71
2022/01/20 04:41:30;;;;;;;;;1.00;1.00;;;;;4.42;84.01;102523.31;5024346;28;11007;-71
2022/01/20 04:44:02;;;;;;;;;1.00;0.00;;;;;4.43;83.43;102525.88;5023419;28;10826;-69
2022/01/20 04:49:13;;;;;;;;;3.25;0.25;;;;;4.45;81.66;102520.41;5021563;28;11528;-69
2022/01/20 04:57:21;;;;;;;;;0.75;0.00;;;;;4.45;76.22;102532.00;5022686;28;10956;-71
2022/01/20 04:59:50;;;;;;;;;3.25;3.25;;;;;4.45;74.26;102545.41;5039017;28;10663;-71
2022/01/20 05:02:19;;;;;;;;;1.00;0.25;;;;;4.43;72.41;102541.97;5036831;28;10992;-71
2022/01/20 05:04:57;;;;;;;;;4.50;0.00;;;;;4.51;71.42;102531.56;5023411;28;10593;-71
2022/01/20 05:07:30;;;;;;;;;1.50;0.75;;;;;4.52;72.20;102530.63;5039303;28;10706;-71
2022/01/20 05:09:58;;;;;;;;;0.75;0.00;;;;;4.53;71.45;102537.69;5023207;28;10687;-71
2022/01/20 05:12:35;;;;;;;;;1.75;1.00;;;;;4.51;70.85;102544.13;5039613;28;10906;-71
2022/01/20 05:15:02;;;;;;;;;0.75;0.75;;;;;4.48;69.87;102549.72;5018112;28;10676;-71
2022/01/20 05:17:31;;;;;;;;;2.50;0.75;;;;;4.46;70.12;102549.81;5021582;28;10621;-71
2022/01/20 05:19:57;;;;;;;;;1.50;1.00;;;;;4.50;70.87;102562.06;5006312;28;10637;-71
2022/01/20 05:22:24;;;;;;;;;1.00;1.00;;;;;4.52;71.54;102567.31;5019679;28;10742;-71
2022/01/20 05:24:57;;;;;;;;;0.50;0.50;;;;;4.55;71.95;102573.31;5022750;28;10751;-71
2022/01/20 05:27:24;;;;;;;;;0.75;0.75;;;;;4.53;70.83;102577.06;5036299;28;10791;-73
2022/01/20 05:29:51;;;;;;;;;2.00;0.00;;;;;4.50;70.74;102577.28;5019867;28;10832;-73
2022/01/20 05:32:19;;;;;;;;;0.50;0.50;;;;;4.51;70.60;102582.53;5013720;28;10831;-73
2022/01/20 05:34:46;;;;;;;;;1.00;0.00;;;;;4.52;69.84;102594.13;5037231;28;11001;-72
2022/01/20 05:37:12;;;;;;;;;0.00;0.00;;;;;4.46;68.88;102578.44;5018401;28;10748;-73
2022/01/20 05:39:41;;;;;;;;;0.75;0.00;;;;;4.52;69.89;102597.66;5034533;28;10805;-75
2022/01/20 05:42:10;;;;;;;;;2.00;0.00;;;;;4.36;68.11;102596.13;5014838;28;10931;-72
2022/01/20 05:44:45;;;;;;;;;0.75;0.00;;;;;4.40;68.47;102608.34;5035574;28;10849;-73
2022/01/20 05:47:14;;;;;;;;;0.25;0.25;;;;;4.46;68.79;102594.53;5033578;28;10766;-73
2022/01/20 05:50:01;;;;;;;;;2.50;0.00;;;;;4.33;68.15;102613.28;5029918;28;12995;-73
2022/01/20 05:52:28;;;;;;;;;0.00;0.00;;;;;4.41;68.69;102618.97;5015138;28;10781;-72
2022/01/20 05:54:54;;;;;;;;;0.25;0.25;;;;;4.41;69.00;102624.34;5037818;28;10826;-72
2022/01/20 05:57:21;;;;;;;;;0.00;0.00;;;;;4.37;68.46;102628.19;5019613;28;10703;-73
2022/01/20 05:59:51;;;;;;;;;1.00;0.00;;;;;4.36;67.85;102626.47;5036374;28;10872;-72
2022/01/20 06:02:33;;;;;;;;;0.75;0.75;;;;;4.49;69.64;102623.84;5032342;28;10849;-70
2022/01/20 06:05:04;;;;;;;;;1.75;0.00;;;;;4.42;68.25;102611.78;5036055;28;10908;-73
2022/01/20 06:07:31;;;;;;;;;0.00;0.00;;;;;4.43;67.41;102603.63;5017098;28;10846;-72
2022/01/20 06:09:57;;;;;;;;;0.00;0.00;;;;;4.45;67.34;102599.03;5031714;28;10857;-73
2022/01/20 06:12:24;;;;;;;;;0.75;0.75;;;;;4.39;66.73;102603.97;5019738;28;10741;-71
2022/01/20 06:14:51;;;;;;;;;0.00;0.00;;;;;4.47;67.94;102613.22;5036158;28;10888;-72
2022/01/20 06:17:26;;;;;;;;;0.00;0.00;;;;;4.49;67.67;102615.78;5018136;28;11505;-72
2022/01/20 06:19:54;;;;;;;;;0.00;0.00;;;;;4.46;67.68;102614.19;5035321;28;10749;-73
2022/01/20 06:22:21;;;;;;;;;0.00;0.00;;;;;4.42;67.64;102626.06;5018436;28;10792;-71
2022/01/20 06:24:48;;;;;;;;;0.00;0.00;;;;;4.48;67.91;102628.34;5018596;28;10630;-73
2022/01/20 06:27:16;;;;;;;;;0.75;0.50;;;;;4.46;68.07;102638.31;5019274;28;10666;-70
2022/01/20 06:29:42;;;;;;;;;0.00;0.00;;;;;4.44;69.24;102640.22;5033375;28;10585;-73
2022/01/20 06:32:09;;;;;;;;;1.50;0.00;;;;;4.43;70.67;102640.31;5019472;28;10775;-70
2022/01/20 06:34:36;;;;;;;;;0.00;0.00;;;;;4.33;72.80;102638.28;5015032;28;10772;-71
2022/01/20 06:37:03;;;;;;;;;0.00;0.00;;;;;4.31;74.57;102634.00;5017316;28;10798;-73
2022/01/20 06:39:30;;;;;;;;;2.00;1.00;;;;;4.25;75.18;102621.88;5017869;28;10753;-72
2022/01/20 06:41:56;;;;;;;;;2.50;1.25;;;;;4.29;76.31;102628.72;5042087;28;10795;-73
2022/01/20 06:44:23;;;;;;;;;0.00;0.00;;;;;4.23;76.46;102636.34;5043171;28;10937;-74
2022/01/20 06:46:49;;;;;;;;;1.00;1.00;;;;;4.22;75.91;102635.47;5042855;28;11329;-74
2022/01/20 06:49:32;;;;;;;;;1.25;1.25;;;;;4.14;74.27;102644.97;5034732;28;10677;-73
2022/01/20 06:52:04;;;;;;;;;0.75;0.00;;;;;4.17;74.48;102656.34;5042946;28;10879;-74
2022/01/20 06:54:31;;;;;;;;;0.25;0.00;;;;;4.19;74.13;102669.66;5040524;28;11542;-73
2022/01/20 06:57:00;;;;;;;;;0.75;0.00;;;;;4.09;73.71;102673.91;5019069;28;10949;-73
2022/01/20 06:59:27;;;;;;;;;2.75;0.00;;;;;4.06;73.37;102683.03;5019026;28;10706;-73
2022/01/20 07:01:54;;;;;;;;;3.25;2.00;;;;;4.07;73.36;102686.56;5026317;28;10705;-73
2022/01/20 07:04:28;;;;;;;;;1.00;0.00;;;;;4.16;73.31;102696.66;5039216;28;10833;-73
2022/01/20 07:06:55;;;;;;;;;0.00;0.00;;;;;4.14;73.96;102706.63;5043326;28;10882;-73
2022/01/20 07:09:40;;;;;;;;;0.75;0.75;;;;;3.91;77.13;102700.09;5041742;28;10800;-72
2022/01/20 07:12:29;;;;;;;;;1.50;0.00;;;;;3.77;78.29;102687.63;5041901;28;10899;-73
2022/01/20 07:14:56;;;;;;;;;0.75;0.00;;;;;3.76;78.17;102698.44;5041993;28;10862;-72
2022/01/20 07:17:23;;;;;;;;;1.00;1.00;;;;;3.78;78.56;102693.84;5042177;28;10815;-74
2022/01/20 07:19:51;;;;;;;;;1.75;1.50;;;;;3.78;78.14;102696.50;5041079;28;11225;-73
2022/01/20 07:22:19;;;;;;;;;6.50;0.00;;;;;3.74;78.67;102690.50;5028856;28;11052;-73
2022/01/20 07:24:47;;;;;;;;;0.75;0.00;;;;;3.80;78.98;102695.44;5015136;28;11045;-73
2022/01/20 07:27:47;;;;;;;;;1.00;0.00;;;;;3.75;78.62;102689.53;5019828;28;11742;-71
2022/01/20 07:30:34;;;;;;;;;1.00;0.00;;;;;3.81;79.51;102696.31;5042586;28;10913;-73
2022/01/20 07:33:03;;;;;;;;;2.75;0.00;;;;;3.84;79.16;102706.81;5007152;28;11960;-73
2022/01/20 07:35:35;;;;;;;;;3.00;0.00;;;;;3.89;78.68;102702.88;5040101;28;10802;-70
2022/01/20 07:38:03;;;;;;;;;3.00;0.50;;;;;3.87;78.53;102698.59;5040428;28;10963;-72
2022/01/20 07:40:32;;;;;;;;;4.00;2.00;;;;;3.97;78.39;102705.09;5024254;28;10866;-73
2022/01/20 07:43:00;;;;;;;;;0.50;0.50;;;;;3.98;78.79;102702.31;5023492;28;10972;-73
2022/01/20 07:45:42;;;;;;;;;0.25;0.25;;;;;3.98;79.00;102707.66;5040995;28;11036;-73
2022/01/20 07:48:24;;;;;;;;;1.00;1.00;;;;;3.96;78.90;102711.38;5021655;28;13176;-70
2022/01/20 07:51:14;;;;;;;;;2.00;1.00;;;;;3.87;77.42;102715.53;5023735;28;10867;-73
2022/01/20 07:53:41;;;;;;;;;1.00;1.00;;;;;3.98;78.42;102723.72;5022857;28;11038;-72
2022/01/20 07:56:09;;;;;;;;;1.75;1.00;;;;;3.99;78.45;102725.47;5019885;28;11006;-70
2022/01/20 07:58:36;;;;;;;;;4.50;2.00;;;;;4.01;77.94;102733.38;5054198;28;10997;-73
2022/01/20 08:01:04;;;;;;;;;2.00;1.00;;;;;3.99;76.94;102730.81;5036750;28;11095;-72
2022/01/20 08:03:35;;;;;;;;;0.50;0.50;;;;;4.03;76.16;102730.59;5021680;28;10961;-73
2022/01/20 08:06:04;;;;;;;;;0.00;0.00;;;;;4.09;75.54;102733.75;5021865;28;10646;-70
2022/01/20 08:08:37;;;;;;;;;0.00;0.00;;;;;4.15;75.55;102721.75;5018818;28;10962;-73
2022/01/20 08:11:22;;;;;;;;;0.00;0.00;;;;;4.16;75.00;102723.47;5038333;28;10877;-72
2022/01/20 08:13:56;;;;;;;;;2.75;0.00;;;;;4.08;74.16;102728.47;5038074;28;11592;-73
2022/01/20 08:16:22;;;;;;;;;1.00;1.00;;;;;4.09;72.87;102740.91;5020068;28;10832;-73
2022/01/20 08:18:49;;;;;;;;;2.75;0.75;;;;;4.05;71.62;102744.78;5035518;28;11009;-73
2022/01/20 08:21:16;;;;;;;;;0.00;0.00;;;;;4.13;71.94;102742.44;5022908;28;11028;-73
2022/01/20 08:23:43;;;;;;;;;2.00;0.50;;;;;4.09;70.57;102752.50;5024237;28;11856;-72
2022/01/20 08:26:09;;;;;;;;;1.00;0.00;;;;;4.08;69.79;102748.09;5019305;28;10885;-72
2022/01/20 08:28:36;;;;;;;;;1.00;1.00;;;;;4.18;70.25;102751.88;5018695;28;10855;-71
2022/01/20 08:31:03;;;;;;;;;0.50;0.50;;;;;4.21;68.18;102753.50;5036677;28;10918;-73
2022/01/20 08:33:30;;;;;;;;;0.50;0.50;;;;;4.41;68.14;102766.47;5041329;28;11063;-73
2022/01/20 08:36:03;;;;;;;;;0.00;0.00;;;;;4.40;68.72;102772.78;5027026;28;10904;-72
2022/01/20 08:38:41;;;;;;;;;0.00;0.00;;;;;4.22;67.42;102774.88;5009048;28;10801;-72
2022/01/20 08:41:08;;;;;;;;;0.00;0.00;;;;;4.24;67.40;102770.28;5025832;28;11736;-71
2022/01/20 08:43:38;;;;;;;;;0.00;0.00;;;;;4.54;67.77;102766.53;5057468;28;10832;-73
2022/01/20 08:46:11;;;;;;;;;0.25;0.00;;;;;5.32;72.33;102775.44;5041389;28;10828;-72
2022/01/20 08:48:39;;;;;;;;;2.25;1.50;;;;;4.85;65.33;102776.03;5039634;28;10777;-73
2022/01/20 08:51:21;;;;;;;;;1.00;0.00;;;;;4.83;64.53;102775.28;5037239;28;10794;-74
2022/01/20 08:53:55;;;;;;;;;0.25;0.25;;;;;4.86;64.87;102775.06;5026080;28;10736;-72
2022/01/20 08:56:25;;;;;;;;;0.25;0.00;;;;;4.87;64.41;102777.66;5012901;28;10806;-72
2022/01/20 08:58:51;;;;;;;;;0.00;0.00;;;;;5.03;64.13;102782.84;5029811;28;10744;-74
2022/01/20 09:01:19;;;;;;;;;0.00;0.00;;;;;4.96;63.53;102781.56;5025796;28;10736;-73
2022/01/20 09:03:47;;;;;;;;;0.75;0.25;;;;;4.89;63.14;102782.91;5025755;28;10716;-73
2022/01/20 09:06:15;;;;;;;;;1.00;0.00;;;;;4.88;62.05;102787.41;5012747;28;10725;-73
2022/01/20 09:08:49;;;;;;;;;0.00;0.00;;;;;5.01;61.66;102800.88;5029675;28;10709;-72
2022/01/20 09:11:22;;;;;;;;;0.00;0.00;;;;;5.17;62.50;102801.53;5044518;28;10790;-73
2022/01/20 09:16:43;;;;;;;;;1.00;0.00;;;;;5.40;60.14;102813.38;5044255;28;10726;-73
2022/01/20 09:19:13;;;;;;;;;1.00;0.00;;;;;5.49;60.02;102814.56;5029001;28;10745;-71
2022/01/20 09:21:51;;;;;;;;;0.50;0.00;;;;;5.16;60.94;102813.22;5044707;28;10653;-72
2022/01/20 09:24:17;;;;;;;;;0.00;0.00;;;;;5.54;65.79;102815.97;5044227;28;10593;-73
2022/01/20 09:26:44;;;;;;;;;0.50;0.50;;;;;5.28;63.21;102816.06;5038389;28;10666;-73
2022/01/20 09:29:12;;;;;;;;;0.00;0.00;;;;;5.10;63.73;102821.72;5029173;28;10516;-74
2022/01/20 09:31:39;;;;;;;;;2.00;0.00;;;;;5.56;66.61;102823.91;5045580;28;10759;-73
2022/01/20 09:34:09;;;;;;;;;1.00;0.00;;;;;5.24;64.14;102824.31;5044779;28;10674;-72
2022/01/20 09:36:38;;;;;;;;;0.00;0.00;;;;;4.94;63.69;102816.53;5029254;28;10674;-74
2022/01/20 09:39:05;;;;;;;;;0.00;0.00;;;;;5.01;64.92;102824.19;5029189;28;10595;-71
2022/01/20 09:41:49;;;;;;;;;0.25;0.25;;;;;5.32;63.85;102829.16;5029248;28;10581;-73
2022/01/20 09:44:18;;;;;;;;;0.00;0.00;;;;;5.60;62.92;102828.09;5043585;28;11431;-72
2022/01/20 09:46:45;;;;;;;;;2.00;1.00;;;;;5.55;62.62;102836.47;5044436;28;10760;-72
2022/01/20 09:49:28;;;;;;;;;1.25;1.25;;;;;5.42;63.62;102846.34;5019999;28;11479;-73
2022/01/20 09:51:56;;;;;;;;;1.00;1.00;;;;;5.37;64.97;102847.63;5028835;28;10673;-73
2022/01/20 09:54:37;;;;;;;;;0.25;0.00;;;;;5.41;64.47;102865.25;5042602;28;10518;-72
2022/01/20 09:57:08;;;;;;;;;0.50;0.00;;;;;5.56;63.97;102867.75;5028270;28;10679;-73
2022/01/20 09:59:35;;;;;;;;;1.00;1.00;;;;;5.37;63.24;102869.13;5044143;28;10589;-73
2022/01/20 10:02:07;;;;;;;;;0.00;0.00;;;;;5.34;64.60;102878.25;5005546;28;10821;-73
2022/01/20 10:04:35;;;;;;;;;0.00;0.00;;;;;5.44;64.70;102884.69;5029122;28;10723;-71
2022/01/20 10:07:11;;;;;;;;;0.00;0.00;;;;;5.36;65.37;102887.06;5021670;28;10573;-73
2022/01/20 10:09:45;;;;;;;;;0.25;0.25;;;;;5.39;65.41;102891.38;5028286;28;10636;-73
2022/01/20 10:12:34;;;;;;;;;1.00;0.25;;;;;5.20;64.03;102894.44;5010764;28;10659;-72
2022/01/20 10:15:08;;;;;;;;;1.00;1.00;;;;;5.18;64.48;102893.69;4996908;28;10653;-73
2022/01/20 10:17:45;;;;;;;;;1.00;0.00;;;;;5.37;64.68;102894.16;5028840;28;10629;-73
2022/01/20 10:20:16;;;;;;;;;2.25;0.00;;;;;5.63;62.08;102902.25;5043175;28;10695;-73
2022/01/20 10:22:59;;;;;;;;;1.00;1.00;;;;;5.43;62.24;102885.66;5027590;28;10615;-73
2022/01/20 10:25:47;;;;;;;;;0.00;0.00;;;;;5.10;62.33;102896.03;5045170;28;10791;-73
2022/01/20 10:28:20;;;;;;;;;0.00;0.00;;;;;5.09;63.23;102891.63;5029232;28;10793;-74
2022/01/20 10:30:49;;;;;;;;;0.00;0.00;;;;;5.19;63.00;102884.66;5018796;28;10666;-73
2022/01/20 10:33:16;;;;;;;;;0.50;0.25;;;;;5.24;62.24;102896.84;5028649;28;10782;-74
2022/01/20 10:35:45;;;;;;;;;0.00;0.00;;;;;5.22;62.52;102896.06;5012699;28;10610;-73
2022/01/20 10:38:32;;;;;;;;;0.00;0.00;;;;;5.28;63.37;102902.84;5044154;28;10657;-74
2022/01/20 10:41:04;;;;;;;;;0.00;0.00;;;;;5.34;62.57;102913.16;5045385;28;10665;-74
2022/01/20 10:43:35;;;;;;;;;1.00;0.00;;;;;5.28;61.90;102926.16;5027892;28;11849;-73
2022/01/20 10:46:24;;;;;;;;;1.00;0.00;;;;;5.44;62.04;102929.50;5031038;28;10669;-74
2022/01/20 10:49:00;;;;;;;;;0.00;0.00;;;;;5.54;61.81;102927.94;5028330;28;10781;-74
2022/01/20 10:51:32;;;;;;;;;1.25;1.00;;;;;5.64;61.29;102934.38;5041811;28;10648;-75
2022/01/20 10:54:01;;;;;;;;;0.00;0.00;;;;;5.65;61.53;102927.19;5028711;28;10666;-75
2022/01/20 10:56:30;;;;;;;;;0.00;0.00;;;;;5.62;62.17;102930.09;5044354;28;10672;-74
2022/01/20 10:59:06;;;;;;;;;1.00;1.00;;;;;5.52;62.72;102933.41;5045233;28;10688;-74
2022/01/20 11:01:34;;;;;;;;;0.00;0.00;;;;;5.49;62.82;102930.94;5042938;28;10696;-75
2022/01/20 11:04:03;;;;;;;;;2.25;0.00;;;;;5.52;62.81;102925.34;5012500;28;10650;-75
2022/01/20 11:06:31;;;;;;;;;1.00;1.00;;;;;5.45;64.23;102924.06;5039849;28;10745;-73
2022/01/20 11:09:20;;;;;;;;;0.25;0.00;;;;;5.42;63.97;102915.31;5032118;28;10558;-74
2022/01/20 11:12:17;;;;;;;;;0.00;0.00;;;;;5.48;65.46;102917.63;5023584;28;10609;-75
2022/01/20 11:14:53;;;;;;;;;0.00;0.00;;;;;5.34;64.89;102907.81;5031655;28;10589;-74
2022/01/20 11:17:25;;;;;;;;;0.00;0.00;;;;;5.36;65.66;102899.63;5047633;28;10894;-74
2022/01/20 11:19:55;;;;;;;;;0.00;0.00;;;;;5.43;65.55;102901.78;5048230;28;10584;-74
2022/01/20 11:22:22;;;;;;;;;0.75;0.25;;;;;5.53;64.43;102904.72;5032296;28;10684;-73
2022/01/20 11:25:09;;;;;;;;;2.50;0.00;;;;;5.60;64.39;102889.88;5047061;28;10767;-74
2022/01/20 11:27:45;;;;;;;;;1.00;1.00;;;;;5.49;64.13;102889.78;5025198;28;11620;-74
2022/01/20 11:30:32;;;;;;;;;0.00;0.00;;;;;5.63;65.48;102889.69;5017349;28;10663;-74
2022/01/20 11:33:20;;;;;;;;;1.00;0.00;;;;;5.70;66.00;102892.78;5048646;28;10721;-74
2022/01/20 11:35:56;;;;;;;;;0.75;0.75;;;;;5.53;65.91;102883.22;5006870;28;10748;-74
2022/01/20 11:38:45;;;;;;;;;2.00;0.00;;;;;5.68;68.88;102884.84;5031364;28;10724;-74
2022/01/20 11:41:14;;;;;;;;;0.00;0.00;;;;;5.98;68.67;102883.69;5048216;28;10701;-74
2022/01/20 11:43:44;;;;;;;;;0.25;0.00;;;;;6.25;68.63;102880.88;5015363;28;10681;-75
2022/01/20 11:46:15;;;;;;;;;1.00;0.00;;;;;6.18;67.88;102875.91;5030362;28;11299;-74
2022/01/20 11:49:03;;;;;;;;;1.00;1.00;;;;;6.12;67.93;102884.41;5022816;28;11434;-75
2022/01/20 11:51:50;;;;;;;;;2.50;1.00;;;;;6.01;67.54;102872.72;5024182;28;10809;-75
2022/01/20 11:54:39;;;;;;;;;1.75;0.00;;;;;5.84;67.59;102876.56;5032806;28;10668;-73
2022/01/20 11:57:16;;;;;;;;;0.75;0.00;;;;;5.72;67.22;102882.81;5047958;28;10584;-75
2022/01/20 11:59:53;;;;;;;;;0.00;0.00;;;;;5.51;67.70;102885.16;5049142;28;10565;-74
2022/01/20 12:02:32;;;;;;;;;0.00;0.00;;;;;5.34;69.03;102883.63;5039364;28;10510;-73
2022/01/20 12:05:15;;;;;;;;;1.00;0.00;;;;;5.47;70.26;102883.66;5030856;28;10860;-74
2022/01/20 12:07:48;;;;;;;;;0.00;0.00;;;;;5.61;69.02;102885.38;5045610;28;10756;-73
2022/01/20 12:10:26;;;;;;;;;0.00;0.00;;;;;5.91;68.16;102888.63;5017880;28;10576;-74
2022/01/20 12:13:04;;;;;;;;;2.00;1.00;;;;;5.92;65.73;102876.06;5030880;28;10720;-74
2022/01/20 12:15:34;;;;;;;;;1.25;0.00;;;;;5.87;66.73;102881.72;5045953;28;10500;-73
2022/01/20 12:18:01;;;;;;;;;0.00;0.00;;;;;5.83;67.20;102866.78;5013804;28;10567;-74
2022/01/20 12:20:28;;;;;;;;;1.00;1.00;;;;;5.84;66.34;102865.81;5014445;28;10613;-72
2022/01/20 12:22:55;;;;;;;;;0.00;0.00;;;;;5.79;66.02;102868.84;5013612;28;10585;-73
2022/01/20 12:25:27;;;;;;;;;1.25;1.00;;;;;5.84;66.51;102866.69;5014585;28;10539;-74
2022/01/20 12:28:04;;;;;;;;;0.00;0.00;;;;;5.88;65.82;102861.94;5048222;28;10698;-72
2022/01/20 12:30:33;;;;;;;;;0.00;0.00;;;;;6.04;66.36;102861.75;5047322;28;10592;-75
2022/01/20 12:33:11;;;;;;;;;2.00;0.00;;;;;6.17;66.10;102866.13;5037144;28;10603;-74
2022/01/20 12:35:45;;;;;;;;;0.00;0.00;;;;;6.08;64.49;102865.94;5013827;28;10711;-74
2022/01/20 12:38:25;;;;;;;;;2.25;1.00;;;;;6.01;65.42;102856.59;5030314;28;10637;-74
2022/01/20 12:41:12;;;;;;;;;0.50;0.00;;;;;5.96;64.48;102845.31;5031067;28;10523;-74
2022/01/20 12:43:45;;;;;;;;;1.25;1.25;;;;;5.88;64.89;102856.56;5030282;28;10568;-72
2022/01/20 12:46:18;;;;;;;;;1.75;1.00;;;;;5.94;65.88;102863.34;5022958;28;10518;-73
2022/01/20 12:48:51;;;;;;;;;1.00;1.00;;;;;5.66;65.32;102859.91;5028825;28;10438;-72
2022/01/20 12:51:17;;;;;;;;;1.50;1.50;;;;;5.86;67.13;102862.06;5029533;28;10549;-73
2022/01/20 12:53:54;;;;;;;;;0.00;0.00;;;;;5.74;66.19;102860.25;5014706;28;10736;-73
2022/01/20 12:56:33;;;;;;;;;3.00;0.00;;;;;5.73;66.58;102854.97;5046786;28;10613;-73
2022/01/20 12:59:00;;;;;;;;;0.25;0.25;;;;;5.69;66.57;102861.50;5029863;28;10646;-73
2022/01/20 13:01:37;;;;;;;;;0.00;0.00;;;;;5.74;68.10;102854.88;5048352;28;10450;-73
2022/01/20 13:04:05;;;;;;;;;1.50;1.00;;;;;5.47;66.72;102862.16;5046996;28;10479;-75
2022/01/20 13:06:33;;;;;;;;;1.75;1.00;;;;;5.48;66.66;102866.56;5045163;28;10628;-73